createdAt,value
2023-04-02T00:00:19.121Z,11.90
2023-04-02T00:02:49.970Z,11.60
2023-04-02T00:05:50.511Z,11.53
2023-04-02T00:08:31.245Z,13.17
2023-04-02T00:11:00.685Z,12.23
2023-04-02T00:13:35.733Z,12.60
2023-04-02T00:16:06.719Z,15.10
2023-04-02T00:18:40.522Z,10.90
2023-04-02T00:21:13.762Z,11.77
2023-04-02T00:23:43.863Z,12.90
2023-04-02T00:26:30.540Z,15.13
2023-04-02T00:29:01.120Z,12.07
2023-04-02T00:31:30.658Z,10.30
2023-04-02T00:34:00.475Z,13.93
2023-04-02T00:36:34.032Z,12.73
2023-04-02T00:39:05.948Z,15.27
2023-04-02T00:41:36.317Z,10.37
2023-04-02T00:44:07.122Z,16.57
2023-04-02T00:46:47.183Z,12.63
2023-04-02T00:49:31.765Z,14.30
2023-04-02T00:52:03.589Z,12.90
2023-04-02T00:54:38.325Z,10.43
2023-04-02T00:57:12.980Z,15.90
2023-04-02T00:59:55.688Z,9.50
2023-04-02T01:02:30.373Z,11.87
2023-04-02T01:05:00.896Z,12.93
2023-04-02T01:07:59.359Z,8.60
2023-04-02T01:10:54.778Z,11.97
2023-04-02T01:13:31.404Z,9.53
2023-04-02T01:16:08.520Z,11.10
2023-04-02T01:18:51.433Z,12.00
2023-04-02T01:21:32.730Z,10.00
2023-04-02T01:24:05.601Z,7.93
2023-04-02T01:26:53.466Z,8.67
2023-04-02T01:29:27.181Z,8.63
2023-04-02T01:31:58.398Z,8.07
2023-04-02T01:34:28.891Z,8.50
2023-04-02T01:37:10.357Z,13.03
2023-04-02T01:39:58.248Z,7.93
2023-04-02T01:42:31.134Z,11.00
2023-04-02T01:45:06.352Z,10.70
2023-04-02T01:47:34.733Z,10.73
2023-04-02T01:50:06.320Z,7.70
2023-04-02T01:52:41.705Z,9.53
2023-04-02T01:55:13.185Z,9.70
2023-04-02T01:57:43.728Z,8.90
2023-04-02T02:00:16.178Z,9.00
2023-04-02T02:02:50.196Z,10.27
2023-04-02T02:05:21.300Z,7.27
2023-04-02T02:07:51.371Z,7.93
2023-04-02T02:10:25.434Z,11.80
2023-04-02T02:12:53.897Z,8.03
2023-04-02T02:15:24.853Z,8.83
2023-04-02T02:17:59.020Z,8.23
2023-04-02T02:20:29.280Z,9.23
2023-04-02T02:23:00.179Z,6.57
2023-04-02T02:25:32.376Z,7.40
2023-04-02T02:28:06.337Z,8.87
2023-04-02T02:30:39.496Z,12.23
2023-04-02T02:33:18.073Z,5.33
2023-04-02T02:35:53.894Z,7.70
2023-04-02T02:38:54.344Z,10.77
2023-04-02T02:41:48.416Z,13.87
2023-04-02T02:44:22.682Z,9.17
2023-04-02T02:46:55.738Z,6.17
2023-04-02T02:49:29.103Z,6.97
2023-04-02T02:52:03.024Z,5.80
2023-04-02T02:54:44.054Z,8.63
2023-04-02T02:57:19.146Z,9.53
2023-04-02T02:59:49.672Z,11.53
2023-04-02T03:02:20.433Z,6.13
2023-04-02T03:04:53.085Z,7.33
2023-04-02T03:07:26.598Z,6.23
2023-04-02T03:10:06.721Z,4.37
2023-04-02T03:12:45.143Z,6.80
2023-04-02T03:15:21.328Z,8.20
2023-04-02T03:17:56.978Z,11.63
2023-04-02T03:20:30.992Z,7.23
2023-04-02T03:23:06.920Z,7.47
2023-04-02T03:25:43.452Z,6.87
2023-04-02T03:28:18.043Z,12.83
2023-04-02T03:30:51.659Z,9.77
2023-04-02T03:33:26.432Z,6.53
2023-04-02T03:36:01.423Z,12.80
2023-04-02T03:38:32.202Z,10.27
2023-04-02T03:41:05.430Z,10.70
2023-04-02T03:43:40.765Z,10.53
2023-04-02T03:46:21.852Z,9.23
2023-04-02T03:48:54.057Z,8.40
2023-04-02T03:51:27.659Z,10.50
2023-04-02T03:53:57.208Z,12.33
2023-04-02T03:56:31.598Z,7.23
2023-04-02T03:59:11.657Z,6.47
2023-04-02T04:01:46.618Z,9.17
2023-04-02T04:04:20.139Z,8.33
2023-04-02T04:06:52.470Z,11.03
2023-04-02T04:09:26.239Z,8.27
2023-04-02T04:11:59.698Z,8.00
2023-04-02T04:14:32.129Z,6.50
2023-04-02T04:17:09.490Z,10.53
2023-04-02T04:19:45.637Z,10.37
2023-04-02T04:22:19.058Z,7.70
2023-04-02T04:24:50.954Z,10.67
2023-04-02T04:27:34.686Z,11.83
2023-04-02T04:30:07.146Z,11.07
2023-04-02T04:32:42.870Z,5.90
2023-04-02T04:35:26.182Z,9.37
2023-04-02T04:37:59.836Z,7.33
2023-04-02T04:40:31.408Z,9.97
2023-04-02T04:43:04.860Z,15.20
2023-04-02T04:45:41.788Z,8.40
2023-04-02T04:48:14.566Z,9.73
2023-04-02T04:50:52.017Z,9.20
2023-04-02T04:53:23.296Z,9.23
2023-04-02T04:55:59.723Z,10.57
2023-04-02T04:58:45.411Z,9.60
2023-04-02T05:01:18.948Z,7.50
2023-04-02T05:03:55.209Z,10.63
2023-04-02T05:06:36.292Z,8.83
2023-04-02T05:09:14.491Z,9.13
2023-04-02T05:11:47.124Z,13.67
2023-04-02T05:14:23.543Z,5.90
2023-04-02T05:16:58.787Z,8.63
2023-04-02T05:19:33.053Z,5.73
2023-04-02T05:22:07.400Z,7.83
2023-04-02T05:24:46.718Z,9.33
2023-04-02T05:27:24.846Z,13.40
2023-04-02T05:29:57.204Z,9.87
2023-04-02T05:32:31.392Z,11.07
2023-04-02T05:34:59.955Z,11.57
2023-04-02T05:37:31.474Z,7.90
2023-04-02T05:40:12.912Z,7.90
2023-04-02T05:42:46.768Z,7.13
2023-04-02T05:45:24.272Z,7.97
2023-04-02T05:47:59.969Z,9.47
2023-04-02T05:50:37.410Z,11.17
2023-04-02T05:53:14.914Z,8.73
2023-04-02T05:55:50.728Z,8.83
2023-04-02T06:01:15.399Z,7.73
2023-04-02T06:03:51.512Z,9.93
2023-04-02T06:06:28.344Z,9.50
2023-04-02T06:09:01.534Z,11.40
2023-04-02T06:11:33.261Z,13.90
2023-04-02T06:14:04.682Z,11.47
2023-04-02T06:16:34.420Z,10.13
2023-04-02T06:19:09.336Z,8.07
2023-04-02T06:21:45.094Z,8.77
2023-04-02T06:24:21.093Z,9.87
2023-04-02T06:26:54.432Z,10.37
2023-04-02T06:29:30.534Z,10.37
2023-04-02T06:32:02.248Z,13.20
2023-04-02T06:34:33.011Z,9.50
2023-04-02T06:37:15.169Z,9.37
2023-04-02T06:39:46.011Z,9.83
2023-04-02T06:42:21.220Z,7.70
2023-04-02T06:45:17.685Z,9.47
2023-04-02T06:47:58.370Z,9.20
2023-04-02T06:50:45.486Z,7.90
2023-04-02T06:53:22.836Z,8.23
2023-04-02T06:55:57.771Z,11.17
2023-04-02T06:58:30.255Z,7.70
2023-04-02T07:00:58.609Z,6.83
2023-04-02T07:03:56.593Z,9.43
2023-04-02T07:06:37.072Z,8.17
2023-04-02T07:09:05.582Z,11.27
2023-04-02T07:11:36.622Z,9.17
2023-04-02T07:14:07.035Z,7.60
2023-04-02T07:16:36.791Z,10.77
2023-04-02T07:19:05.244Z,7.90
2023-04-02T07:21:36.166Z,8.83
2023-04-02T07:24:04.318Z,6.10
2023-04-02T07:26:32.927Z,4.97
2023-04-02T07:29:02.379Z,7.33
2023-04-02T07:31:30.616Z,8.60
2023-04-02T07:34:00.777Z,8.37
2023-04-02T07:36:30.687Z,8.53
2023-04-02T07:38:59.000Z,7.30
2023-04-02T07:41:27.582Z,8.73
2023-04-02T07:43:55.665Z,7.03
2023-04-02T07:46:26.013Z,7.47
2023-04-02T07:48:54.164Z,10.80
2023-04-02T07:51:24.001Z,7.83
2023-04-02T07:53:55.853Z,9.17
2023-04-02T07:56:27.332Z,10.80
2023-04-02T07:58:55.378Z,6.27
2023-04-02T08:01:26.845Z,10.07
2023-04-02T08:03:56.868Z,9.07
2023-04-02T08:06:26.134Z,9.50
2023-04-02T08:08:54.466Z,5.93
2023-04-02T08:11:22.497Z,8.20
2023-04-02T08:13:50.678Z,7.07
2023-04-02T08:16:20.202Z,7.20
2023-04-02T08:18:49.709Z,8.55
2023-04-02T08:21:17.897Z,9.90
2023-04-02T08:23:46.384Z,8.85
2023-04-02T08:26:18.521Z,8.30
2023-04-02T08:28:46.704Z,6.70
2023-04-02T08:31:14.967Z,10.02
2023-04-02T08:33:43.916Z,9.13
2023-04-02T08:36:19.656Z,8.30
2023-04-02T08:38:53.031Z,5.28
2023-04-02T08:41:29.833Z,9.95
2023-04-02T08:44:09.805Z,9.13
2023-04-02T08:46:45.533Z,10.85
2023-04-02T08:49:16.128Z,6.68
2023-04-02T08:51:47.467Z,9.05
2023-04-02T08:54:32.128Z,5.93
2023-04-02T08:57:04.171Z,7.75
2023-04-02T08:59:35.204Z,7.60
2023-04-02T09:02:28.777Z,8.00
2023-04-02T09:04:59.487Z,8.70
2023-04-02T09:07:29.294Z,6.57
2023-04-02T09:10:37.329Z,11.30
2023-04-02T09:13:14.707Z,8.13
2023-04-02T09:15:45.986Z,5.43
2023-04-02T09:18:17.055Z,5.40
2023-04-02T09:20:48.283Z,7.10
2023-04-02T09:23:21.624Z,7.72
2023-04-02T09:26:03.353Z,8.85
2023-04-02T09:28:40.292Z,8.50
2023-04-02T09:31:18.111Z,6.18
2023-04-02T09:33:50.254Z,8.07
2023-04-02T09:36:26.411Z,6.10
2023-04-02T09:39:06.956Z,7.03
2023-04-02T09:41:37.414Z,7.95
2023-04-02T09:44:31.198Z,6.65
2023-04-02T09:47:03.515Z,6.05
2023-04-02T09:49:33.788Z,7.32
2023-04-02T09:52:20.983Z,5.90
2023-04-02T09:55:17.802Z,6.18
2023-04-02T09:57:47.431Z,9.77
2023-04-02T10:03:04.998Z,8.80
2023-04-02T10:08:10.241Z,5.07
2023-04-02T10:10:43.184Z,4.75
2023-04-02T10:13:21.924Z,4.95
2023-04-02T10:15:57.167Z,4.30
2023-04-02T10:18:37.885Z,4.25
2023-04-02T10:21:07.306Z,5.10
2023-04-02T10:23:36.275Z,6.47
2023-04-02T10:26:23.348Z,6.53
2023-04-02T10:29:13.039Z,4.72
2023-04-02T10:31:48.616Z,4.47
2023-04-02T10:34:22.799Z,5.95
2023-04-02T10:36:54.474Z,8.52
2023-04-02T10:39:28.323Z,9.55
2023-04-02T10:42:07.369Z,5.43
2023-04-02T10:44:49.890Z,6.75
2023-04-02T10:47:27.975Z,8.73
2023-04-02T10:50:09.196Z,6.05
2023-04-02T10:52:43.202Z,8.25
2023-04-02T10:55:18.146Z,6.40
2023-04-02T10:57:48.370Z,6.53
2023-04-02T11:00:23.595Z,4.88
2023-04-02T11:02:56.266Z,5.35
2023-04-02T11:05:31.791Z,4.63
2023-04-02T11:08:08.070Z,5.22
2023-04-02T11:10:41.438Z,5.22
2023-04-02T11:13:18.725Z,6.80
2023-04-02T11:15:47.138Z,3.58
2023-04-02T11:18:28.396Z,5.07
2023-04-02T11:21:02.612Z,5.97
2023-04-02T11:23:34.899Z,8.05
2023-04-02T11:26:42.781Z,4.60
2023-04-02T11:29:21.376Z,4.28
2023-04-02T11:31:52.105Z,3.30
2023-04-02T11:35:05.834Z,3.72
2023-04-02T11:37:38.310Z,8.93
2023-04-02T11:40:58.172Z,4.95
2023-04-02T11:43:52.045Z,4.25
2023-04-02T11:46:46.980Z,8.32
2023-04-02T11:49:39.694Z,6.68
2023-04-02T11:52:29.211Z,4.40
2023-04-02T11:55:00.941Z,4.68
2023-04-02T11:57:48.071Z,5.95
2023-04-02T12:00:29.191Z,4.45
2023-04-02T12:03:15.486Z,4.43
2023-04-02T12:05:50.930Z,3.15
2023-04-02T12:08:47.229Z,5.65
2023-04-02T12:11:33.427Z,3.53
2023-04-02T12:14:02.167Z,2.92
2023-04-02T12:16:34.999Z,3.72
2023-04-02T12:19:10.595Z,3.80
2023-04-02T12:21:39.893Z,4.38
2023-04-02T12:24:18.932Z,3.28
2023-04-02T12:26:47.443Z,2.60
2023-04-02T12:29:26.274Z,5.07
2023-04-02T12:31:56.595Z,3.88
2023-04-02T12:34:28.316Z,6.63
2023-04-02T12:36:59.689Z,2.47
2023-04-02T12:39:28.432Z,2.83
2023-04-02T12:41:57.751Z,3.45
2023-04-02T12:44:28.240Z,2.85
2023-04-02T12:46:57.916Z,4.60
2023-04-02T12:49:35.516Z,4.75
2023-04-02T12:52:05.661Z,3.70
2023-04-02T12:54:39.375Z,3.90
2023-04-02T12:57:39.039Z,3.72
2023-04-02T13:00:33.746Z,1.30
2023-04-02T13:03:14.526Z,2.25
2023-04-02T13:05:48.298Z,3.30
2023-04-02T13:08:23.581Z,4.78
2023-04-02T13:10:57.831Z,6.05
2023-04-02T13:13:33.941Z,6.07
2023-04-02T13:16:04.689Z,3.80
2023-04-02T13:18:35.921Z,2.47
2023-04-02T13:21:07.267Z,5.20
2023-04-02T13:23:38.015Z,3.50
2023-04-02T13:26:19.128Z,5.45
2023-04-02T13:29:01.110Z,3.80
2023-04-02T13:31:30.210Z,4.63
2023-04-02T13:33:58.708Z,3.47
2023-04-02T13:36:29.563Z,2.10
2023-04-02T13:38:58.270Z,2.10
2023-04-02T13:41:28.473Z,3.47
2023-04-02T13:43:59.807Z,2.78
2023-04-02T13:46:30.423Z,3.63
2023-04-02T13:48:59.779Z,2.47
2023-04-02T13:51:37.176Z,3.95
2023-04-02T13:54:10.163Z,4.50
2023-04-02T13:56:39.575Z,3.40
2023-04-02T13:59:07.888Z,7.72
2023-04-02T14:01:37.493Z,4.63
2023-04-02T14:04:07.332Z,5.55
2023-04-02T14:06:58.139Z,4.85
2023-04-02T14:09:33.327Z,3.97
2023-04-02T14:12:10.240Z,3.00
2023-04-02T14:15:05.097Z,3.88
2023-04-02T14:17:47.591Z,5.60
2023-04-02T14:20:29.875Z,5.45
2023-04-02T14:23:15.738Z,4.10
2023-04-02T14:25:49.326Z,4.13
2023-04-02T14:28:27.291Z,3.55
2023-04-02T14:31:04.322Z,4.57
2023-04-02T14:33:40.379Z,3.42
2023-04-02T14:36:18.049Z,4.85
2023-04-02T14:38:56.216Z,2.75
2023-04-02T14:41:30.483Z,5.50
2023-04-02T14:44:02.159Z,5.18
2023-04-02T14:46:34.897Z,2.17
2023-04-02T14:49:16.739Z,3.35
2023-04-02T14:51:49.815Z,4.05
2023-04-02T14:54:31.324Z,6.32
2023-04-02T14:57:06.242Z,3.72
2023-04-02T14:59:39.122Z,4.28
2023-04-02T15:02:15.572Z,2.72
2023-04-02T15:04:47.769Z,3.67
2023-04-02T15:07:27.248Z,5.47
2023-04-02T15:10:07.496Z,4.15
2023-04-02T15:12:39.566Z,4.05
2023-04-02T15:15:29.827Z,4.65
2023-04-02T15:18:10.728Z,3.50
2023-04-02T15:20:46.677Z,4.32
2023-04-02T15:23:24.212Z,8.30
2023-04-02T15:26:03.261Z,5.00
2023-04-02T15:28:35.800Z,4.65
2023-04-02T15:31:07.929Z,5.55
2023-04-02T15:33:43.386Z,4.00
2023-04-02T15:36:44.640Z,3.47
2023-04-02T15:39:36.090Z,4.40
2023-04-02T15:42:16.384Z,1.83
2023-04-02T15:44:55.449Z,2.03
2023-04-02T15:47:36.832Z,3.35
2023-04-02T15:50:25.050Z,9.05
2023-04-02T15:52:59.905Z,4.70
2023-04-02T15:55:37.629Z,4.57
2023-04-02T15:58:21.989Z,2.50
2023-04-02T16:00:59.481Z,4.22
2023-04-02T16:03:46.240Z,4.93
2023-04-02T16:06:44.924Z,4.05
2023-04-02T16:09:23.171Z,4.90
2023-04-02T16:11:59.816Z,2.92
2023-04-02T16:14:31.611Z,1.55
2023-04-02T16:17:17.588Z,2.50
2023-04-02T16:19:54.202Z,3.28
2023-04-02T16:22:25.816Z,3.60
2023-04-02T16:25:00.583Z,3.80
2023-04-02T16:27:32.989Z,3.70
2023-04-02T16:30:30.307Z,3.85
2023-04-02T16:33:09.821Z,5.55
2023-04-02T16:35:46.460Z,2.72
2023-04-02T16:38:31.682Z,4.07
2023-04-02T16:41:09.904Z,5.68
2023-04-02T16:43:47.198Z,5.30
2023-04-02T16:46:38.177Z,4.10
2023-04-02T16:49:21.288Z,6.07
2023-04-02T16:51:59.637Z,4.63
2023-04-02T16:54:34.447Z,4.78
2023-04-02T16:57:17.420Z,5.35
2023-04-02T16:59:54.463Z,5.30
2023-04-02T17:02:34.229Z,3.50
2023-04-02T17:05:11.232Z,5.22
2023-04-02T17:07:46.106Z,4.85
2023-04-02T17:10:31.138Z,3.10
2023-04-02T17:13:08.660Z,6.80
2023-04-02T17:15:39.455Z,6.22
2023-04-02T17:18:17.518Z,5.72
2023-04-02T17:20:46.923Z,3.30
2023-04-02T17:23:18.013Z,4.25
2023-04-02T17:25:51.639Z,3.90
2023-04-02T17:28:25.633Z,3.08
2023-04-02T17:30:56.835Z,7.15
2023-04-02T17:33:28.527Z,4.70
2023-04-02T17:36:11.440Z,6.28
2023-04-02T17:38:45.893Z,5.30
2023-04-02T17:41:19.169Z,3.80
2023-04-02T17:43:53.065Z,6.32
2023-04-02T17:46:31.302Z,5.55
2023-04-02T17:49:07.043Z,7.63
2023-04-02T17:51:40.729Z,7.22
2023-04-02T17:54:25.566Z,5.50
2023-04-02T17:57:11.854Z,3.58
2023-04-02T17:59:52.723Z,5.22
2023-04-02T18:02:38.266Z,5.00
2023-04-02T18:05:17.840Z,5.38
2023-04-02T18:07:53.858Z,5.03
2023-04-02T18:10:28.326Z,5.57
2023-04-02T18:12:59.334Z,4.32
2023-04-02T18:15:59.118Z,4.97
2023-04-02T18:18:46.513Z,4.75
2023-04-02T18:21:26.026Z,5.10
2023-04-02T18:24:13.872Z,6.32
2023-04-02T18:26:48.958Z,7.35
2023-04-02T18:29:28.885Z,4.85
2023-04-02T18:32:05.894Z,3.65
2023-04-02T18:34:52.066Z,11.23
2023-04-02T18:37:29.414Z,3.35
2023-04-02T18:40:20.119Z,6.38
2023-04-02T18:42:59.824Z,4.10
2023-04-02T18:45:40.943Z,5.78
2023-04-02T18:48:21.019Z,4.20
2023-04-02T18:50:50.259Z,5.70
2023-04-02T18:53:22.876Z,4.40
2023-04-02T18:55:55.841Z,3.90
2023-04-02T18:58:28.103Z,4.40
2023-04-02T19:00:57.373Z,3.72
2023-04-02T19:03:30.449Z,5.97
2023-04-02T19:06:03.078Z,6.25
2023-04-02T19:08:39.565Z,7.07
2023-04-02T19:11:13.193Z,6.50
2023-04-02T19:13:41.672Z,2.80
2023-04-02T19:16:33.762Z,7.80
2023-04-02T19:19:09.917Z,8.75
2023-04-02T19:21:48.517Z,4.55
2023-04-02T19:24:37.812Z,6.90
2023-04-02T19:27:13.293Z,4.85
2023-04-02T19:29:54.826Z,7.72
2023-04-02T19:32:34.677Z,5.10
2023-04-02T19:35:15.627Z,4.22
2023-04-02T19:37:50.539Z,5.50
2023-04-02T19:40:34.106Z,7.53
2023-04-02T19:43:02.509Z,6.18
2023-04-02T19:45:38.860Z,6.28
2023-04-02T19:48:14.251Z,4.28
2023-04-02T19:50:43.128Z,8.82
2023-04-02T19:53:11.602Z,7.27
2023-04-02T19:55:41.597Z,6.93
2023-04-02T19:58:19.678Z,7.65
2023-04-02T20:00:48.408Z,9.03
2023-04-02T20:03:16.668Z,8.47
2023-04-02T20:05:45.065Z,6.23
2023-04-02T20:08:13.422Z,7.57
2023-04-02T20:10:43.670Z,6.63
2023-04-02T20:13:12.064Z,7.87
2023-04-02T20:15:41.172Z,7.87
2023-04-02T20:18:10.591Z,5.33
2023-04-02T20:20:40.194Z,3.43
2023-04-02T20:23:08.467Z,5.97
2023-04-02T20:25:36.815Z,5.63
2023-04-02T20:28:07.548Z,5.87
2023-04-02T20:30:36.323Z,4.93
2023-04-02T20:33:04.985Z,5.43
2023-04-02T20:35:34.635Z,8.07
2023-04-02T20:38:03.587Z,5.33
2023-04-02T20:40:32.648Z,4.30
2023-04-02T20:43:00.883Z,2.50
2023-04-02T20:45:30.749Z,4.47
2023-04-02T20:47:59.047Z,4.80
2023-04-02T20:50:27.654Z,3.37
2023-04-02T20:52:56.561Z,6.30
2023-04-02T20:55:24.861Z,8.53
2023-04-02T20:57:53.194Z,4.10
2023-04-02T21:00:22.652Z,4.70
2023-04-02T21:02:52.339Z,3.60
2023-04-02T21:05:20.716Z,8.13
2023-04-02T21:07:49.462Z,4.60
2023-04-02T21:10:18.020Z,3.17
2023-04-02T21:12:46.413Z,4.60
2023-04-02T21:15:14.691Z,3.67
2023-04-02T21:17:43.148Z,4.80
2023-04-02T21:20:13.748Z,2.10
2023-04-02T21:22:42.103Z,4.10
2023-04-02T21:25:11.263Z,7.70
2023-04-02T21:27:39.630Z,4.93
2023-04-02T21:30:09.299Z,2.67
2023-04-02T21:32:37.689Z,3.47
2023-04-02T21:35:07.671Z,5.47
2023-04-02T21:37:37.401Z,4.50
2023-04-02T21:40:06.448Z,4.37
2023-04-02T21:42:34.788Z,4.43
2023-04-02T21:45:03.180Z,2.73
2023-04-02T21:47:31.464Z,2.77
2023-04-02T21:49:59.823Z,3.40
2023-04-02T21:52:28.200Z,6.07
2023-04-02T21:54:57.897Z,4.93
2023-04-02T21:57:26.326Z,2.90
2023-04-02T21:59:57.020Z,4.63
2023-04-02T22:02:25.716Z,4.23
2023-04-02T22:04:54.241Z,2.30
2023-04-02T22:07:22.686Z,2.70
2023-04-02T22:09:51.059Z,3.77
2023-04-02T22:12:20.904Z,4.67
2023-04-02T22:14:50.887Z,2.47
2023-04-02T22:17:19.153Z,3.87
2023-04-02T22:19:47.440Z,3.80
2023-04-02T22:22:15.870Z,4.80
2023-04-02T22:24:44.147Z,4.47
2023-04-02T22:27:12.796Z,4.10
2023-04-02T22:29:42.501Z,4.57
2023-04-02T22:32:10.766Z,3.73
2023-04-02T22:34:45.556Z,4.07
2023-04-02T22:37:14.057Z,3.30
2023-04-02T22:39:42.279Z,4.53
2023-04-02T22:42:10.723Z,2.47
2023-04-02T22:44:39.040Z,2.23
2023-04-02T22:47:08.732Z,1.00
2023-04-02T22:49:37.039Z,4.23
2023-04-02T22:52:06.141Z,5.67
2023-04-02T22:54:34.425Z,5.97
2023-04-02T22:57:03.120Z,3.60
2023-04-02T22:59:31.433Z,4.23
2023-04-02T23:01:59.876Z,3.87
2023-04-02T23:04:29.635Z,4.73
2023-04-02T23:06:58.014Z,6.47
2023-04-02T23:09:26.509Z,4.63
2023-04-02T23:11:54.780Z,6.83
2023-04-02T23:14:23.146Z,2.73
2023-04-02T23:16:51.432Z,9.70
2023-04-02T23:19:19.698Z,6.33
2023-04-02T23:21:49.638Z,5.87
2023-04-02T23:24:18.106Z,5.97
2023-04-02T23:26:46.415Z,4.93
2023-04-02T23:29:14.461Z,5.90
2023-04-02T23:31:42.538Z,5.03
2023-04-02T23:34:11.004Z,8.27
2023-04-02T23:36:39.279Z,7.03
2023-04-02T23:39:12.602Z,4.27
2023-04-02T23:41:42.434Z,8.93
2023-04-02T23:44:10.894Z,5.27
2023-04-02T23:46:39.060Z,6.77
2023-04-02T23:49:07.237Z,5.20
2023-04-02T23:51:35.254Z,8.67
2023-04-02T23:54:03.425Z,6.50
2023-04-02T23:56:32.871Z,6.17
2023-04-02T23:59:00.932Z,6.53
